Gokay K — TCHF — position and weather

sailwx.info

Track history (hours):
 
Tides and Currents Weather Stations Pressure Air Temp Water Temp Dewpoint Dewpoint Depression Visibility Wind Speed Wind Dir Waves Ship Positions

Gokay K

Last reported at 2015-Jul-31 05:10 UTC. Time now 2015-Aug-02 10:17 UTC.
Position N 45°57' E 031°07'.

Length 118 m; draft 7.9 m.

Type: Ship. MMSI: 271000029.

Date/timePositionNaut miles runAvg speedWind from/ knotsBaromVisibWave heightAir tempDewpointWater temp
2015-Jul-31 05:10N 45°57' E 031°07'38 6.5
2015-Jul-30 23:15N 46°35' E 031°14'8 8.5
2015-Jul-30 22:19N 46°35' E 031°25'6 8.0
2015-Jul-30 21:34N 46°35' E 031°34'9 8.6
2015-Jul-30 20:32N 46°36' E 031°47'8 7.9
2015-Jul-30 19:34N 46°40' E 031°56'8 7.7
2015-Jul-30 18:34N 46°47' E 031°53'8 8.5
2015-Jul-30 17:34N 46°54' E 032°01'3 2.6
2015-Jul-30 16:31N 46°57' E 031°60'0 0.0
2015-Jul-30 15:31N 46°57' E 031°60'0 0.0
2015-Jul-30 14:31N 46°57' E 031°60'0 0.0
2015-Jul-30 13:31N 46°57' E 031°60'0 0.0
2015-Jul-30 12:28N 46°57' E 031°60'0 0.0
2015-Jul-30 11:31N 46°57' E 031°60'0 0.0
2015-Jul-30 10:31N 46°57' E 031°60'0 0.0
2015-Jul-30 09:31N 46°57' E 031°60'0 0.0
2015-Jul-30 08:31N 46°57' E 031°60'0 0.0
2015-Jul-30 07:31N 46°57' E 031°60'0 0.0
2015-Jul-30 06:31N 46°57' E 031°60'0 0.0
2015-Jul-30 05:31N 46°57' E 031°60'0 0.0
2015-Jul-30 04:31N 46°57' E 031°60'0 0.0
2015-Jul-30 03:31N 46°57' E 031°60'0 0.0
2015-Jul-30 02:31N 46°57' E 031°60'0 0.0
2015-Jul-30 01:31N 46°57' E 031°60'0 0.0
2015-Jul-30 00:31N 46°57' E 031°60'0 0.0
2015-Jul-29 23:31N 46°57' E 031°60'0 0.0
2015-Jul-29 22:31N 46°57' E 031°60'0 0.0
2015-Jul-29 21:31N 46°57' E 031°60'0 0.0
2015-Jul-29 20:31N 46°57' E 031°60'0 0.0
2015-Jul-29 19:31N 46°57' E 031°60'0 0.0
2015-Jul-29 18:31N 46°57' E 031°60'0 0.0
2015-Jul-29 17:31N 46°57' E 031°60'0 0.0
2015-Jul-29 16:31N 46°57' E 031°60'0 0.0
2015-Jul-29 15:31N 46°57' E 031°60'0 0.0
2015-Jul-29 14:31N 46°57' E 031°60'0 0.0
2015-Jul-29 13:31N 46°57' E 031°60'0 0.0
2015-Jul-28 09:31N 46°57' E 031°60'0 0.0
2015-Jul-28 08:31N 46°57' E 031°60'0 0.0
2015-Jul-28 07:25N 46°57' E 031°60'0 0.0
2015-Jul-28 06:31N 46°57' E 031°60'0 0.0
2015-Jul-28 05:31N 46°57' E 031°60'0 0.0
2015-Jul-28 04:31N 46°57' E 031°60'0 0.0
2015-Jul-28 03:31N 46°57' E 031°60'0 0.0
2015-Jul-28 02:31N 46°57' E 031°60'0 0.0
2015-Jul-28 01:31N 46°57' E 031°60'0 0.0
2015-Jul-28 00:31N 46°57' E 031°60'2 2.2
2015-Jul-27 23:33N 46°55' E 032°01'1010.0
2015-Jul-27 22:33N 46°47' E 031°53'10 8.9
2015-Jul-27 21:27N 46°37' E 031°51'10 9.9
2015-Jul-27 20:24N 46°35' E 031°36'238 8.9
2015-Jul-26 17:30N 43°08' E 034°22'1010.4
2015-Jul-26 16:33N 43°04' E 034°34'1110.5
2015-Jul-26 15:33N 42°59' E 034°47'1010.4
2015-Jul-26 14:33N 42°54' E 034°59'1010.3
2015-Jul-26 13:33N 42°48' E 035°11'10 9.9
2015-Jul-26 12:34N 42°44' E 035°23'10 9.8
2015-Jul-26 11:33N 42°39' E 035°35'10 9.7
2015-Jul-26 10:33N 42°35' E 035°47'10 9.6
2015-Jul-26 09:33N 42°32' E 035°59'19 9.5
2015-Jul-26 07:33N 42°23' E 036°22'10 9.2
2015-Jul-26 06:29N 42°18' E 036°33'9 9.6
2015-Jul-26 05:33N 42°13' E 036°44'  
2015-Jul-21 15:10N 43°02' E 038°02'610.4
2015-Jul-21 14:34N 43°07' E 037°57'38 9.6
2015-Jul-21 10:33N 43°40' E 037°30'20 9.1
2015-Jul-21 08:25N 43°56' E 037°14'8 9.4
2015-Jul-21 07:33N 44°03' E 037°09'  
Track history (hours):
 
Tides and Currents Weather Stations Pressure Air Temp Water Temp Dewpoint Dewpoint Depression Visibility Wind Speed Wind Dir Waves Ship Positions

Gokay K

Last reported at 2015-Jul-31 05:10 UTC. Time now 2015-Aug-02 10:17 UTC.
Position N 45°57' E 031°07'.

Length 118 m; draft 7.9 m.

Type: Ship. MMSI: 271000029.

Date/timePositionNaut miles runAvg speedWind from/ knotsBaromVisibWave heightAir tempDewpointWater temp
2015-Jul-31 05:10N 45°57' E 031°07'38 6.5
2015-Jul-30 23:15N 46°35' E 031°14'8 8.5
2015-Jul-30 22:19N 46°35' E 031°25'6 8.0
2015-Jul-30 21:34N 46°35' E 031°34'9 8.6
2015-Jul-30 20:32N 46°36' E 031°47'8 7.9
2015-Jul-30 19:34N 46°40' E 031°56'8 7.7
2015-Jul-30 18:34N 46°47' E 031°53'8 8.5
2015-Jul-30 17:34N 46°54' E 032°01'3 2.6
2015-Jul-30 16:31N 46°57' E 031°60'0 0.0
2015-Jul-30 15:31N 46°57' E 031°60'0 0.0
2015-Jul-30 14:31N 46°57' E 031°60'0 0.0
2015-Jul-30 13:31N 46°57' E 031°60'0 0.0
2015-Jul-30 12:28N 46°57' E 031°60'0 0.0
2015-Jul-30 11:31N 46°57' E 031°60'0 0.0
2015-Jul-30 10:31N 46°57' E 031°60'0 0.0
2015-Jul-30 09:31N 46°57' E 031°60'0 0.0
2015-Jul-30 08:31N 46°57' E 031°60'0 0.0
2015-Jul-30 07:31N 46°57' E 031°60'0 0.0
2015-Jul-30 06:31N 46°57' E 031°60'0 0.0
2015-Jul-30 05:31N 46°57' E 031°60'0 0.0
2015-Jul-30 04:31N 46°57' E 031°60'0 0.0
2015-Jul-30 03:31N 46°57' E 031°60'0 0.0
2015-Jul-30 02:31N 46°57' E 031°60'0 0.0
2015-Jul-30 01:31N 46°57' E 031°60'0 0.0
2015-Jul-30 00:31N 46°57' E 031°60'0 0.0
2015-Jul-29 23:31N 46°57' E 031°60'0 0.0
2015-Jul-29 22:31N 46°57' E 031°60'0 0.0
2015-Jul-29 21:31N 46°57' E 031°60'0 0.0
2015-Jul-29 20:31N 46°57' E 031°60'0 0.0
2015-Jul-29 19:31N 46°57' E 031°60'0 0.0
2015-Jul-29 18:31N 46°57' E 031°60'0 0.0
2015-Jul-29 17:31N 46°57' E 031°60'0 0.0
2015-Jul-29 16:31N 46°57' E 031°60'0 0.0
2015-Jul-29 15:31N 46°57' E 031°60'0 0.0
2015-Jul-29 14:31N 46°57' E 031°60'0 0.0
2015-Jul-29 13:31N 46°57' E 031°60'0 0.0
2015-Jul-28 09:31N 46°57' E 031°60'0 0.0
2015-Jul-28 08:31N 46°57' E 031°60'0 0.0
2015-Jul-28 07:25N 46°57' E 031°60'0 0.0
2015-Jul-28 06:31N 46°57' E 031°60'0 0.0
2015-Jul-28 05:31N 46°57' E 031°60'0 0.0
2015-Jul-28 04:31N 46°57' E 031°60'0 0.0
2015-Jul-28 03:31N 46°57' E 031°60'0 0.0
2015-Jul-28 02:31N 46°57' E 031°60'0 0.0
2015-Jul-28 01:31N 46°57' E 031°60'0 0.0
2015-Jul-28 00:31N 46°57' E 031°60'2 2.2
2015-Jul-27 23:33N 46°55' E 032°01'1010.0
2015-Jul-27 22:33N 46°47' E 031°53'10 8.9
2015-Jul-27 21:27N 46°37' E 031°51'10 9.9
2015-Jul-27 20:24N 46°35' E 031°36'238 8.9
2015-Jul-26 17:30N 43°08' E 034°22'1010.4
2015-Jul-26 16:33N 43°04' E 034°34'1110.5
2015-Jul-26 15:33N 42°59' E 034°47'1010.4
2015-Jul-26 14:33N 42°54' E 034°59'1010.3
2015-Jul-26 13:33N 42°48' E 035°11'10 9.9
2015-Jul-26 12:34N 42°44' E 035°23'10 9.8
2015-Jul-26 11:33N 42°39' E 035°35'10 9.7
2015-Jul-26 10:33N 42°35' E 035°47'10 9.6
2015-Jul-26 09:33N 42°32' E 035°59'19 9.5
2015-Jul-26 07:33N 42°23' E 036°22'10 9.2
2015-Jul-26 06:29N 42°18' E 036°33'9 9.6
2015-Jul-26 05:33N 42°13' E 036°44'  
2015-Jul-21 15:10N 43°02' E 038°02'610.4
2015-Jul-21 14:34N 43°07' E 037°57'38 9.6
2015-Jul-21 10:33N 43°40' E 037°30'20 9.1
2015-Jul-21 08:25N 43°56' E 037°14'8 9.4
2015-Jul-21 07:33N 44°03' E 037°09'  

Dump ship's entire track history